Time;durP1;ratioP1;P1;durP2;ratioP2;P2;SDS_P1;SDS_P2;PMS_P1;PMS_P2;Temp;Humidity;BMP_temperature;BMP_pressure;BME280_temperature;BME280_humidity;BME280_pressure;Samples;Min_cycle;Max_cycle;Signal;HPM_P1;HPM_P2
2023/09/13 08:50:23;;;;;;;21.90;14.10;;;;;;;28.44;56.92;98575.70;132984;1306;545467;-82
2023/09/13 08:53:24;;;;;;;26.90;14.00;;;;;;;28.42;57.33;98569.39;136405;1287;22237;-83
2023/09/13 08:56:28;;;;;;;17.70;13.80;;;;;;;28.57;56.85;98565.23;136614;1282;22781;-82
2023/09/13 08:59:29;;;;;;;21.00;13.80;;;;;;;28.63;55.91;98562.88;136623;1263;22191;-83
2023/09/13 09:02:31;;;;;;;34.20;14.60;;;;;;;28.70;56.24;98565.61;136547;1280;183864;-81
2023/09/13 09:05:32;;;;;;;21.00;14.60;;;;;;;28.79;55.83;98565.04;136877;1280;22302;-81
2023/09/13 09:08:36;;;;;;;97.60;17.70;;;;;;;28.95;55.77;98562.39;136830;1280;22225;-82
2023/09/13 09:11:38;;;;;;;18.70;13.50;;;;;;;29.09;55.04;98564.59;136851;1276;22254;-82
2023/09/13 09:14:40;;;;;;;26.90;14.50;;;;;;;29.21;54.42;98559.54;137211;1276;22259;-82
2023/09/13 09:17:41;;;;;;;17.80;14.40;;;;;;;29.32;54.31;98555.14;137138;1277;22298;-85
2023/09/13 09:20:44;;;;;;;54.80;17.70;;;;;;;29.40;53.38;98554.80;137131;1276;22199;-84
2023/09/13 09:23:46;;;;;;;19.30;13.70;;;;;;;29.41;52.93;98556.48;137174;1277;22147;-82
2023/09/13 09:26:47;;;;;;;400.10;50.20;;;;;;;29.38;52.37;98555.63;137086;1277;22085;-83
2023/09/13 09:29:48;;;;;;;25.60;14.80;;;;;;;29.44;52.47;98556.65;137163;1277;22322;-83
2023/09/13 09:32:49;;;;;;;26.20;14.40;;;;;;;29.46;51.83;98555.11;137232;1276;22289;-82
2023/09/13 09:35:50;;;;;;;278.10;35.50;;;;;;;29.57;52.12;98558.13;137056;1277;22526;-82
2023/09/13 09:38:51;;;;;;;50.40;14.80;;;;;;;29.69;51.33;98557.50;136970;1277;22225;-80
2023/09/13 09:41:53;;;;;;;33.10;14.20;;;;;;;29.80;50.73;98548.97;136810;1277;22243;-82
2023/09/13 09:44:55;;;;;;;17.10;12.60;;;;;;;29.89;50.53;98549.02;137184;1277;22735;-82
2023/09/13 09:47:56;;;;;;;28.60;13.10;;;;;;;29.96;50.13;98547.80;137133;1277;22490;-84
2023/09/13 09:50:57;;;;;;;26.30;12.90;;;;;;;29.96;50.24;98549.23;137178;1277;22370;-85
2023/09/13 09:53:59;;;;;;;35.20;15.20;;;;;;;30.04;50.17;98547.79;136779;1276;22581;-82
2023/09/13 09:57:00;;;;;;;37.40;14.20;;;;;;;30.13;49.98;98545.19;136947;1276;22223;-85
2023/09/13 10:00:01;;;;;;;16.60;13.30;;;;;;;30.16;49.71;98544.43;137108;1276;22347;-81
2023/09/13 10:03:03;;;;;;;19.70;13.50;;;;;;;30.13;49.38;98539.40;137116;1277;22249;-81
2023/09/13 10:06:06;;;;;;;28.60;14.90;;;;;;;30.09;49.06;98532.74;137175;1277;22735;-81
2023/09/13 10:09:07;;;;;;;15.60;12.60;;;;;;;30.16;48.36;98535.63;136755;1276;22397;-82
2023/09/13 10:12:09;;;;;;;27.40;14.70;;;;;;;30.18;48.49;98536.94;136810;1277;22382;-79
2023/09/13 10:15:10;;;;;;;27.40;13.70;;;;;;;30.30;48.59;98535.48;136957;1277;22654;-82
2023/09/13 10:18:12;;;;;;;21.20;11.90;;;;;;;30.33;47.91;98535.11;136652;1277;22539;-80
2023/09/13 10:21:14;;;;;;;35.80;13.70;;;;;;;30.28;47.52;98533.80;136837;1277;22705;-80
2023/09/13 10:24:16;;;;;;;19.80;11.40;;;;;;;30.33;47.55;98531.86;137203;1278;22150;-81
2023/09/13 10:27:17;;;;;;;16.10;11.10;;;;;;;30.40;46.59;98525.61;137181;1277;22360;-80
2023/09/13 10:30:20;;;;;;;60.70;14.70;;;;;;;30.38;46.20;98519.48;137193;1259;22245;-80
2023/09/13 10:33:21;;;;;;;50.10;12.80;;;;;;;30.51;46.30;98523.59;137193;1277;22951;-81
2023/09/13 10:36:23;;;;;;;13.10;9.60;;;;;;;30.61;45.39;98522.13;137143;1276;22252;-81
2023/09/13 10:39:24;;;;;;;19.10;10.10;;;;;;;30.64;44.76;98513.80;137219;1277;22640;-82
2023/09/13 10:42:25;;;;;;;27.00;11.60;;;;;;;30.73;45.06;98513.10;137171;1277;23440;-81
2023/09/13 10:45:27;;;;;;;19.60;10.70;;;;;;;30.83;45.17;98518.82;137188;1277;22412;-81
2023/09/13 10:48:28;;;;;;;18.30;11.40;;;;;;;30.91;44.32;98522.17;136885;1278;22316;-84
2023/09/13 10:51:30;;;;;;;15.80;10.70;;;;;;;30.89;44.51;98522.30;136940;1277;22253;-83
2023/09/13 10:54:31;;;;;;;20.70;11.00;;;;;;;30.93;44.78;98517.70;137217;1277;22737;-82
2023/09/13 10:57:32;;;;;;;41.90;11.40;;;;;;;31.11;44.61;98517.60;137135;1277;22232;-82
2023/09/13 11:00:33;;;;;;;11.90;9.60;;;;;;;31.26;43.71;98520.27;137129;1277;22431;-80
2023/09/13 11:03:34;;;;;;;22.20;9.40;;;;;;;31.33;42.94;98517.73;137122;1277;22522;-82
2023/09/13 11:06:36;;;;;;;435.20;44.10;;;;;;;31.33;41.85;98520.59;137148;1277;22175;-85
2023/09/13 11:09:37;;;;;;;20.40;9.30;;;;;;;31.19;41.76;98519.54;137108;1277;22206;-81
2023/09/13 11:12:38;;;;;;;14.90;8.60;;;;;;;31.05;41.26;98515.34;137140;1277;22106;-81
2023/09/13 11:15:39;;;;;;;16.70;8.30;;;;;;;30.73;42.12;98514.90;137076;1264;22358;-80
2023/09/13 11:18:40;;;;;;;14.90;8.40;;;;;;;30.74;42.32;98513.73;137156;1276;22228;-79
2023/09/13 11:21:42;;;;;;;16.50;9.00;;;;;;;30.81;42.27;98515.23;137198;1273;22652;-80
2023/09/13 11:24:43;;;;;;;15.60;8.20;;;;;;;30.93;41.67;98512.09;137164;1276;22676;-81
2023/09/13 11:27:44;;;;;;;19.20;8.70;;;;;;;30.99;41.29;98510.59;137221;1276;22595;-84
2023/09/13 11:30:46;;;;;;;66.30;13.40;;;;;;;31.12;41.26;98504.05;137211;1276;22252;-81
2023/09/13 11:33:47;;;;;;;18.80;7.60;;;;;;;31.26;41.45;98504.91;137215;1276;22109;-81
2023/09/13 11:36:48;;;;;;;54.00;9.30;;;;;;;31.07;40.44;98504.92;137226;1276;22775;-81
2023/09/13 11:39:49;;;;;;;11.80;8.00;;;;;;;31.02;40.51;98504.74;137264;1276;22322;-80
2023/09/13 11:42:51;;;;;;;13.60;8.00;;;;;;;31.25;39.54;98508.46;137192;1276;22093;-80
2023/09/13 11:45:52;;;;;;;10.80;7.30;;;;;;;31.33;37.69;98503.63;137209;1276;22303;-80
2023/09/13 11:48:53;;;;;;;15.20;7.40;;;;;;;31.41;37.60;98501.80;137012;1276;22837;-80
2023/09/13 11:51:54;;;;;;;35.90;10.20;;;;;;;31.53;37.51;98502.63;137274;1276;22307;-82
2023/09/13 11:54:55;;;;;;;24.50;8.30;;;;;;;31.78;37.36;98504.81;137278;1276;22201;-81
2023/09/13 11:57:57;;;;;;;13.40;7.20;;;;;;;31.89;35.76;98506.80;137238;1276;22149;-80
2023/09/13 12:00:58;;;;;;;13.20;6.80;;;;;;;32.00;36.51;98508.77;137529;1273;22740;-81
2023/09/13 12:04:03;;;;;;;21.80;7.90;;;;;;;32.16;36.26;98504.08;137514;1273;22276;-81
2023/09/13 12:07:04;;;;;;;30.20;8.00;;;;;;;32.26;35.83;98506.29;137558;1273;22192;-81
2023/09/13 12:10:05;;;;;;;19.10;8.10;;;;;;;32.34;35.16;98506.27;137515;1273;22549;-80
2023/09/13 12:13:06;;;;;;;11.90;7.30;;;;;;;32.23;35.89;98506.89;137443;1273;22095;-81
2023/09/13 12:16:08;;;;;;;13.70;7.10;;;;;;;32.30;35.85;98507.08;137465;1273;22281;-81
2023/09/13 12:19:09;;;;;;;63.50;11.70;;;;;;;32.46;34.93;98503.79;137475;1273;22196;-80
2023/09/13 12:22:10;;;;;;;14.90;7.40;;;;;;;32.61;34.44;98505.19;137435;1273;22057;-80
2023/09/13 12:25:11;;;;;;;10.20;6.80;;;;;;;32.65;33.70;98512.59;137428;1273;22741;-83
2023/09/13 12:28:12;;;;;;;105.40;16.70;;;;;;;32.41;33.22;98512.52;137412;1269;22795;-83
2023/09/13 12:31:14;;;;;;;10.20;7.30;;;;;;;32.22;34.11;98513.48;137432;1273;22152;-82
2023/09/13 12:34:17;;;;;;;8.60;6.60;;;;;;;32.12;33.88;98514.85;137383;1273;22332;-81
2023/09/13 12:37:18;;;;;;;11.20;7.30;;;;;;;31.93;34.06;98514.52;137467;1272;22221;-82
2023/09/13 12:40:19;;;;;;;12.70;7.60;;;;;;;31.90;34.54;98517.00;137441;1273;22442;-81
2023/09/13 12:43:20;;;;;;;15.60;7.90;;;;;;;31.75;35.04;98513.31;137451;1273;22293;-80
2023/09/13 12:46:21;;;;;;;16.50;7.90;;;;;;;31.62;35.38;98513.62;137459;1273;22260;-80
2023/09/13 12:49:22;;;;;;;14.80;8.00;;;;;;;31.50;35.55;98510.08;137560;1273;22094;-80
2023/09/13 12:52:24;;;;;;;12.70;7.90;;;;;;;31.41;35.44;98510.45;137571;1273;22510;-83
2023/09/13 12:55:25;;;;;;;8.90;7.10;;;;;;;31.39;35.87;98502.69;137568;1273;22211;-81
2023/09/13 12:58:26;;;;;;;20.30;8.90;;;;;;;31.52;35.66;98499.29;137538;1273;22226;-82
2023/09/13 13:01:28;;;;;;;15.20;8.00;;;;;;;31.66;35.95;98498.68;137604;1273;22242;-83
2023/09/13 13:04:29;;;;;;;11.50;6.90;;;;;;;31.92;36.00;98502.95;137605;1273;23045;-83
2023/09/13 13:07:33;;;;;;;10.80;7.30;;;;;;;32.08;35.74;98498.04;137562;1273;22384;-82
2023/09/13 13:10:34;;;;;;;29.70;8.20;;;;;;;32.06;35.52;98494.98;137523;1273;22528;-82
2023/09/13 13:13:36;;;;;;;458.30;44.30;;;;;;;32.16;35.58;98493.98;137565;1273;22214;-85
2023/09/13 13:16:37;;;;;;;15.00;8.10;;;;;;;32.18;35.43;98487.70;137557;1273;22218;-81
2023/09/13 13:19:42;;;;;;;8.40;7.30;;;;;;;32.01;35.30;98484.98;137544;1273;22612;-83
2023/09/13 13:22:43;;;;;;;10.00;7.40;;;;;;;31.81;35.81;98482.46;137550;1272;22210;-82
2023/09/13 13:25:44;;;;;;;11.90;8.20;;;;;;;31.75;35.73;98482.25;137472;1273;22171;-83
2023/09/13 13:28:45;;;;;;;18.60;8.60;;;;;;;31.65;35.35;98475.60;137480;1273;22258;-82
2023/09/13 13:31:47;;;;;;;9.70;7.70;;;;;;;31.64;36.08;98473.15;137499;1264;22217;-83
2023/09/13 13:34:50;;;;;;;12.50;7.60;;;;;;;31.66;36.01;98468.44;137540;1273;23085;-83
2023/09/13 13:37:51;;;;;;;8.90;6.80;;;;;;;31.64;35.80;98466.28;137508;1273;23181;-84
2023/09/13 13:40:52;;;;;;;9.40;7.20;;;;;;;31.55;36.12;98459.34;137579;1270;22892;-83
2023/09/13 13:43:53;;;;;;;22.60;8.20;;;;;;;31.55;36.49;98460.37;137544;1273;22928;-82
2023/09/13 13:46:54;;;;;;;20.30;8.60;;;;;;;31.62;36.13;98453.68;137576;1273;22405;-84
2023/09/13 13:49:56;;;;;;;69.60;11.50;;;;;;;31.75;35.98;98446.95;137551;1273;22723;-84
2023/09/13 13:52:57;;;;;;;27.10;9.50;;;;;;;31.82;36.06;98441.84;137546;1272;23086;-84
2023/09/13 13:55:58;;;;;;;10.00;7.60;;;;;;;31.80;36.26;98441.14;137490;1273;22212;-83
2023/09/13 13:58:59;;;;;;;8.80;8.00;;;;;;;31.72;36.62;98436.94;137556;1272;22382;-82
2023/09/13 14:02:03;;;;;;;34.10;9.90;;;;;;;31.63;36.64;98434.03;137522;1273;22309;-82
2023/09/13 14:05:05;;;;;;;13.20;8.70;;;;;;;31.48;36.89;98436.83;137546;1273;22239;-84
2023/09/13 14:08:06;;;;;;;12.20;8.20;;;;;;;31.55;36.85;98434.11;137536;1267;22805;-83
2023/09/13 14:11:07;;;;;;;11.10;8.60;;;;;;;31.56;36.99;98428.15;137555;1271;22713;-85
2023/09/13 14:14:09;;;;;;;10.90;8.40;;;;;;;31.37;37.12;98424.45;137561;1273;22342;-83
2023/09/13 14:17:10;;;;;;;10.50;8.20;;;;;;;31.15;37.94;98424.52;137482;1273;22472;-84
2023/09/13 14:20:12;;;;;;;13.10;8.40;;;;;;;30.92;38.75;98429.53;137553;1273;22389;-83
2023/09/13 14:23:13;;;;;;;28.80;9.50;;;;;;;30.72;39.05;98426.30;137547;1273;22214;-82
2023/09/13 14:26:14;;;;;;;17.20;8.80;;;;;;;30.49;39.31;98420.14;137534;1273;22749;-80
2023/09/13 14:29:15;;;;;;;22.10;9.60;;;;;;;30.37;40.21;98412.77;137491;1273;22677;-85
2023/09/13 14:32:17;;;;;;;27.90;10.70;;;;;;;30.40;39.79;98409.83;137533;1272;22249;-85
2023/09/13 14:35:19;;;;;;;21.10;9.60;;;;;;;30.65;40.32;98405.20;137566;1273;23066;-84
2023/09/13 14:38:20;;;;;;;18.80;9.20;;;;;;;30.76;41.64;98407.28;137544;1271;22738;-84
2023/09/13 14:41:22;;;;;;;17.80;10.00;;;;;;;30.85;41.91;98404.45;137534;1273;22246;-84
2023/09/13 14:44:23;;;;;;;19.40;9.40;;;;;;;30.85;40.01;98401.05;137590;1267;22267;-81
2023/09/13 14:47:26;;;;;;;14.50;9.30;;;;;;;30.94;40.04;98406.95;137548;1273;23007;-84
2023/09/13 14:50:27;;;;;;;12.00;9.30;;;;;;;31.11;39.12;98410.25;137515;1273;22298;-84
2023/09/13 14:53:28;;;;;;;12.40;8.60;;;;;;;31.15;38.71;98417.88;137519;1273;22218;-83
2023/09/13 14:56:29;;;;;;;17.00;8.90;;;;;;;30.99;38.76;98423.73;137629;1273;22238;-86
2023/09/13 14:59:31;;;;;;;15.40;9.40;;;;;;;30.83;38.53;98422.90;137581;1273;22736;-84
2023/09/13 15:02:32;;;;;;;14.60;8.90;;;;;;;30.64;39.05;98414.14;137596;1267;22301;-86
2023/09/13 15:05:35;;;;;;;11.30;8.80;;;;;;;30.50;39.33;98412.52;137550;1272;22244;-86
2023/09/13 15:08:39;;;;;;;14.20;9.10;;;;;;;30.36;39.69;98410.67;137487;1273;22214;-85
2023/09/13 15:11:41;;;;;;;14.10;9.60;;;;;;;30.10;40.60;98413.29;137415;1273;22589;-87
2023/09/13 15:14:42;;;;;;;14.10;9.50;;;;;;;29.84;41.23;98413.80;137220;1273;22773;-84
2023/09/13 15:17:43;;;;;;;20.00;10.30;;;;;;;29.59;41.89;98415.66;137451;1273;22536;-84
2023/09/13 15:20:45;;;;;;;21.70;9.90;;;;;;;29.37;42.58;98417.38;137586;1273;22719;-85
2023/09/13 15:23:46;;;;;;;17.80;9.40;;;;;;;29.18;42.91;98416.00;137602;1269;22206;-85
2023/09/13 15:26:47;;;;;;;18.80;10.30;;;;;;;29.03;43.24;98414.02;137526;1273;22985;-82
2023/09/13 15:29:49;;;;;;;15.10;10.30;;;;;;;28.88;43.82;98420.63;137574;1273;22584;-84
2023/09/13 15:32:50;;;;;;;16.60;11.40;;;;;;;28.73;44.63;98423.81;137528;1273;23031;-84
2023/09/13 15:35:51;;;;;;;23.00;12.20;;;;;;;28.61;45.49;98427.86;137595;1273;22535;-85
2023/09/13 15:38:52;;;;;;;27.10;12.00;;;;;;;28.46;47.27;98422.91;137598;1273;22406;-85
2023/09/13 15:41:53;;;;;;;26.00;11.90;;;;;;;28.25;48.41;98423.63;137553;1273;22647;-86
2023/09/13 15:44:54;;;;;;;21.20;11.50;;;;;;;27.98;50.16;98418.77;137621;1272;22343;-87
2023/09/13 15:47:56;;;;;;;14.30;10.80;;;;;;;27.67;51.99;98418.98;137578;1273;22079;-86
2023/09/13 15:50:57;;;;;;;14.20;11.00;;;;;;;27.37;52.93;98419.06;137518;1273;22223;-86
2023/09/13 15:53:58;;;;;;;14.20;10.60;;;;;;;27.12;53.58;98417.45;137596;1273;22240;-86
2023/09/13 15:56:59;;;;;;;12.50;10.50;;;;;;;26.90;54.23;98410.59;137424;1273;22456;-86
2023/09/13 16:00:01;;;;;;;32.30;12.90;;;;;;;26.68;54.72;98412.23;137555;1273;22591;-85
2023/09/13 16:03:02;;;;;;;12.60;11.30;;;;;;;26.47;55.55;98410.13;137640;1273;22243;-85
2023/09/13 16:06:04;;;;;;;26.90;13.60;;;;;;;26.30;56.26;98407.91;137382;1273;22230;-85
2023/09/13 16:09:05;;;;;;;36.60;16.20;;;;;;;26.12;57.05;98408.78;137555;1273;22146;-86
2023/09/13 16:12:06;;;;;;;25.10;16.20;;;;;;;25.97;57.81;98412.11;137500;1272;22253;-85
2023/09/13 16:15:07;;;;;;;25.00;17.20;;;;;;;25.80;58.25;98412.89;137415;1269;22204;-85
2023/09/13 16:18:09;;;;;;;32.00;20.10;;;;;;;25.67;59.07;98409.72;137319;1272;22539;-84
2023/09/13 16:21:10;;;;;;;41.80;21.20;;;;;;;25.53;59.78;98406.54;137528;1266;22251;-86
2023/09/13 16:24:11;;;;;;;26.20;19.20;;;;;;;25.40;60.73;98407.98;137568;1273;22289;-83
2023/09/13 16:27:12;;;;;;;25.40;18.30;;;;;;;25.21;61.81;98408.11;137189;1273;22584;-83
2023/09/13 16:30:16;;;;;;;31.40;18.90;;;;;;;25.02;62.69;98409.50;136964;1257;22584;-84
2023/09/13 16:33:18;;;;;;;22.80;19.00;;;;;;;24.83;63.72;98417.93;137049;1273;22485;-84
2023/09/13 16:36:21;;;;;;;55.80;32.60;;;;;;;24.67;64.45;98427.48;137368;1273;22435;-83
2023/09/13 16:39:23;;;;;;;41.00;28.20;;;;;;;24.53;65.00;98430.39;137604;1273;22236;-84
2023/09/13 16:42:24;;;;;;;103.60;50.20;;;;;;;24.40;65.70;98439.55;137603;1272;22415;-84
2023/09/13 16:45:26;;;;;;;94.10;57.00;;;;;;;24.27;66.20;98441.81;137643;1267;22220;-84
2023/09/13 16:48:27;;;;;;;97.50;50.80;;;;;;;24.07;66.78;98446.46;137492;1261;22566;-86
2023/09/13 16:51:28;;;;;;;77.10;47.80;;;;;;;23.89;67.52;98451.08;137531;1266;22258;-85
2023/09/13 16:54:31;;;;;;;100.60;61.80;;;;;;;23.76;67.99;98455.46;137547;1273;22499;-83
2023/09/13 16:57:32;;;;;;;97.70;61.60;;;;;;;23.65;68.45;98463.27;137358;1273;22581;-86
2023/09/13 17:00:33;;;;;;;138.40;50.00;;;;;;;23.50;67.24;98464.12;137236;1270;22558;-85
2023/09/13 17:03:38;;;;;;;82.40;43.10;;;;;;;23.59;65.06;98461.04;137526;1273;22238;-85
2023/09/13 17:06:39;;;;;;;83.10;51.40;;;;;;;23.81;65.08;98457.20;137604;1257;22170;-86
2023/09/13 17:09:40;;;;;;;92.90;56.40;;;;;;;23.93;65.91;98457.46;137584;1273;22404;-86
2023/09/13 17:12:41;;;;;;;86.60;55.10;;;;;;;23.80;66.43;98460.27;137565;1273;22182;-86
2023/09/13 17:15:42;;;;;;;115.90;57.20;;;;;;;23.50;64.66;98458.95;137571;1273;23092;-84
2023/09/13 17:18:43;;;;;;;100.00;58.90;;;;;;;23.27;64.65;98458.75;137638;1273;22263;-84
2023/09/13 17:21:45;;;;;;;94.60;56.40;;;;;;;23.17;64.48;98456.17;137638;1273;22259;-86
2023/09/13 17:24:46;;;;;;;84.10;48.70;;;;;;;23.12;68.98;98459.23;137652;1273;22202;-85
2023/09/13 17:27:47;;;;;;;70.00;40.00;;;;;;;22.97;70.67;98466.14;137635;1273;22183;-84
2023/09/13 17:30:48;;;;;;;58.20;36.20;;;;;;;22.84;72.21;98467.25;137593;1273;22239;-85
2023/09/13 17:33:49;;;;;;;44.50;31.70;;;;;;;22.73;73.37;98468.20;137625;1273;22221;-85
2023/09/13 17:36:50;;;;;;;61.40;35.60;;;;;;;22.67;74.32;98468.86;137629;1273;22851;-84
2023/09/13 17:39:52;;;;;;;48.80;31.70;;;;;;;22.58;75.03;98467.81;137644;1273;22625;-83
2023/09/13 17:42:53;;;;;;;44.60;29.00;;;;;;;22.47;76.08;98468.61;137638;1273;22256;-82
2023/09/13 17:45:54;;;;;;;50.80;30.10;;;;;;;22.38;76.71;98471.45;137640;1273;22234;-83
2023/09/13 17:48:56;;;;;;;44.80;30.50;;;;;;;22.32;77.53;98468.17;137638;1269;22154;-85
2023/09/13 17:51:57;;;;;;;35.10;27.50;;;;;;;22.27;78.57;98467.88;137590;1269;22229;-83
2023/09/13 17:54:58;;;;;;;38.50;27.50;;;;;;;22.20;79.30;98470.23;137634;1272;22648;-83
2023/09/13 17:58:00;;;;;;;59.90;29.30;;;;;;;22.13;79.99;98469.64;137582;1268;22313;-83
2023/09/13 18:01:01;;;;;;;36.90;29.30;;;;;;;22.06;80.24;98473.30;137582;1273;22233;-84
2023/09/13 18:04:03;;;;;;;107.50;35.70;;;;;;;22.02;80.40;98475.23;137622;1272;22579;-83
2023/09/13 18:07:05;;;;;;;70.80;33.10;;;;;;;22.03;80.26;98476.24;137600;1273;22257;-83
2023/09/13 18:10:06;;;;;;;53.30;30.60;;;;;;;22.09;79.92;98487.55;137648;1273;22167;-84
2023/09/13 18:13:07;;;;;;;35.90;24.50;;;;;;;22.21;79.39;98511.88;137561;1273;22602;-81
2023/09/13 18:16:08;;;;;;;38.50;21.80;;;;;;;22.40;77.17;98512.84;137622;1273;22628;-81
2023/09/13 18:19:09;;;;;;;26.60;21.00;;;;;;;22.64;75.22;98512.96;137569;1273;22217;-81
2023/09/13 18:22:11;;;;;;;26.70;20.00;;;;;;;22.78;74.24;98513.60;137624;1273;22273;-81
2023/09/13 18:25:12;;;;;;;23.50;18.30;;;;;;;22.87;73.39;98510.92;137650;1273;22329;-81
2023/09/13 18:28:16;;;;;;;25.30;16.50;;;;;;;22.93;72.69;98511.40;137618;1272;22691;-83
2023/09/13 18:31:17;;;;;;;17.80;15.00;;;;;;;22.96;72.32;98516.59;137622;1269;22764;-82
2023/09/13 18:34:18;;;;;;;27.70;15.10;;;;;;;22.94;72.11;98522.00;137575;1273;22279;-82
2023/09/13 18:37:19;;;;;;;16.70;14.00;;;;;;;22.91;72.24;98523.91;137628;1273;22226;-83
2023/09/13 18:40:21;;;;;;;21.70;15.20;;;;;;;22.86;72.35;98531.73;137557;1273;22781;-83
2023/09/13 18:43:22;;;;;;;20.60;14.40;;;;;;;22.80;72.72;98526.67;137409;1273;22212;-83
2023/09/13 18:46:23;;;;;;;19.90;14.40;;;;;;;22.75;72.86;98524.55;137450;1273;22673;-82
2023/09/13 18:49:25;;;;;;;15.90;14.20;;;;;;;22.71;72.80;98516.56;137634;1273;22659;-82
2023/09/13 18:52:26;;;;;;;19.70;15.50;;;;;;;22.66;72.44;98522.46;137604;1266;22254;-82
2023/09/13 18:55:27;;;;;;;18.00;14.00;;;;;;;22.60;71.76;98523.39;137599;1272;22288;-82
2023/09/13 18:58:28;;;;;;;14.50;12.10;;;;;;;22.56;70.82;98523.73;137508;1273;22730;-84
2023/09/13 19:01:30;;;;;;;16.10;11.40;;;;;;;22.51;70.72;98531.73;137555;1273;22208;-83
2023/09/13 19:04:31;;;;;;;14.40;10.70;;;;;;;22.46;70.66;98530.87;137346;1273;22590;-83
2023/09/13 19:07:34;;;;;;;16.00;11.30;;;;;;;22.42;70.74;98531.58;137511;1273;23035;-83
2023/09/13 19:10:35;;;;;;;15.10;10.70;;;;;;;22.37;70.90;98538.88;137581;1273;22234;-82
2023/09/13 19:13:36;;;;;;;14.80;12.40;;;;;;;22.31;71.43;98539.99;137591;1273;22175;-82
2023/09/13 19:16:37;;;;;;;13.00;11.00;;;;;;;22.27;71.61;98545.84;137564;1273;22948;-82
2023/09/13 19:19:38;;;;;;;16.70;9.80;;;;;;;22.19;71.86;98557.84;137528;1271;22272;-82
2023/09/13 19:22:39;;;;;;;14.20;10.90;;;;;;;22.10;72.05;98573.45;137466;1271;22312;-82
2023/09/13 19:25:41;;;;;;;11.90;9.00;;;;;;;21.99;72.79;98589.08;137586;1273;22282;-81
2023/09/13 19:28:42;;;;;;;10.30;8.80;;;;;;;21.84;73.55;98593.37;137371;1273;22742;-82
2023/09/13 19:31:43;;;;;;;11.50;9.60;;;;;;;21.71;74.69;98596.70;137553;1273;22207;-82
2023/09/13 19:34:47;;;;;;;10.30;9.20;;;;;;;21.57;75.38;98594.69;137574;1273;22234;-82
2023/09/13 19:37:48;;;;;;;12.40;10.40;;;;;;;21.49;76.71;98595.35;137599;1273;22722;-82
2023/09/13 19:40:51;;;;;;;13.10;10.00;;;;;;;21.38;78.19;98604.08;137491;1273;22554;-82
2023/09/13 19:43:52;;;;;;;15.10;10.50;;;;;;;21.27;79.00;98613.48;137587;1273;22624;-82
2023/09/13 19:46:53;;;;;;;15.10;11.90;;;;;;;21.18;80.22;98623.31;137529;1273;22607;-81
2023/09/13 19:49:55;;;;;;;14.20;11.20;;;;;;;21.10;81.94;98629.23;137577;1273;22423;-80
2023/09/13 19:52:56;;;;;;;14.90;13.20;;;;;;;21.05;82.63;98630.86;137488;1273;22308;-80
2023/09/13 19:55:57;;;;;;;15.00;13.20;;;;;;;20.99;83.33;98635.46;137610;1273;22407;-80
2023/09/13 19:58:59;;;;;;;16.20;13.70;;;;;;;20.92;84.00;98636.39;137552;1273;22943;-82
2023/09/13 20:02:00;;;;;;;14.90;12.20;;;;;;;20.87;84.89;98640.64;137546;1269;22646;-81
2023/09/13 20:05:01;;;;;;;15.00;13.10;;;;;;;20.82;85.14;98647.34;137609;1273;22248;-80
2023/09/13 20:08:03;;;;;;;15.00;13.20;;;;;;;20.79;85.36;98653.08;137546;1273;22227;-81
2023/09/13 20:11:04;;;;;;;15.20;12.30;;;;;;;20.76;85.79;98653.86;137574;1273;22175;-81
2023/09/13 20:14:05;;;;;;;22.20;13.90;;;;;;;20.74;85.98;98647.56;137547;1273;22242;-81
2023/09/13 20:17:07;;;;;;;18.90;14.10;;;;;;;20.74;85.48;98647.76;137612;1273;22429;-80
2023/09/13 20:20:08;;;;;;;41.30;16.70;;;;;;;20.74;85.73;98651.47;137554;1273;22250;-80
2023/09/13 20:23:09;;;;;;;18.30;13.20;;;;;;;20.73;86.15;98655.23;137607;1273;22232;-80
2023/09/13 20:26:10;;;;;;;18.60;12.90;;;;;;;20.68;85.91;98651.98;137616;1273;22818;-80
2023/09/13 20:29:11;;;;;;;16.20;13.10;;;;;;;20.65;86.01;98654.77;137579;1273;22261;-80
2023/09/13 20:32:13;;;;;;;16.50;13.80;;;;;;;20.62;86.53;98661.73;137548;1272;22755;-81
2023/09/13 20:35:14;;;;;;;14.50;13.00;;;;;;;20.59;86.89;98661.30;137544;1273;22298;-82
2023/09/13 20:38:15;;;;;;;18.40;13.10;;;;;;;20.55;86.81;98662.67;137553;1273;22402;-81
2023/09/13 20:41:17;;;;;;;17.10;13.60;;;;;;;20.50;87.03;98663.35;137593;1273;22243;-81
2023/09/13 20:44:18;;;;;;;16.10;14.00;;;;;;;20.47;87.02;98660.81;137620;1263;22275;-80
2023/09/13 20:47:20;;;;;;;19.20;14.40;;;;;;;20.43;87.27;98659.35;137556;1273;22960;-80
2023/09/13 20:50:21;;;;;;;19.70;14.00;;;;;;;20.39;87.37;98658.38;137609;1273;22165;-81
2023/09/13 20:53:22;;;;;;;28.90;13.20;;;;;;;20.34;87.50;98659.75;137586;1273;22870;-79
2023/09/13 20:56:23;;;;;;;20.00;12.80;;;;;;;20.30;87.44;98659.34;137600;1273;22288;-80
2023/09/13 20:59:26;;;;;;;15.40;11.80;;;;;;;20.26;87.48;98658.76;137539;1273;22903;-81
2023/09/13 21:02:27;;;;;;;15.00;13.10;;;;;;;20.19;87.77;98659.87;137386;1269;176759;-81
2023/09/13 21:05:29;;;;;;;13.70;12.30;;;;;;;20.12;87.85;98662.91;137602;1273;22229;-82
2023/09/13 21:08:34;;;;;;;18.10;11.70;;;;;;;20.08;88.28;98669.72;137574;1273;22299;-81
2023/09/13 21:11:35;;;;;;;12.70;11.30;;;;;;;20.03;88.78;98679.21;137621;1273;22180;-81
2023/09/13 21:14:36;;;;;;;19.30;12.90;;;;;;;19.98;89.24;98684.51;137538;1273;23179;-81
2023/09/13 21:17:37;;;;;;;13.90;12.60;;;;;;;19.95;89.61;98692.17;137562;1273;22996;-84
2023/09/13 21:20:40;;;;;;;14.10;12.80;;;;;;;19.94;90.03;98697.48;137428;1273;23020;-83
2023/09/13 21:23:42;;;;;;;17.60;13.60;;;;;;;19.95;90.04;98699.59;137499;1265;23564;-83
2023/09/13 21:26:43;;;;;;;13.50;12.20;;;;;;;19.95;90.26;98707.73;137324;1273;22123;-82
2023/09/13 21:29:45;;;;;;;14.80;12.50;;;;;;;19.93;90.38;98711.63;137666;1273;22564;-82
2023/09/13 21:32:48;;;;;;;17.50;12.60;;;;;;;19.92;90.88;98719.59;137644;1273;22253;-82
2023/09/13 21:35:50;;;;;;;15.40;13.90;;;;;;;19.92;90.84;98724.38;137611;1273;22573;-82
2023/09/13 21:38:51;;;;;;;18.10;16.00;;;;;;;19.93;91.47;98728.06;137533;1273;22147;-82
2023/09/13 21:41:52;;;;;;;17.40;15.60;;;;;;;19.90;92.36;98729.56;137484;1273;22248;-82
2023/09/13 21:44:53;;;;;;;16.60;14.80;;;;;;;19.85;92.54;98724.92;137567;1273;22241;-82
2023/09/13 21:47:55;;;;;;;15.10;13.70;;;;;;;19.82;92.84;98722.02;137580;1273;22647;-81
2023/09/13 21:50:56;;;;;;;15.40;14.00;;;;;;;19.79;93.14;98713.45;137589;1267;22229;-81
2023/09/13 21:53:57;;;;;;;15.60;14.10;;;;;;;19.73;93.83;98713.77;137576;1273;22197;-82
2023/09/13 21:56:58;;;;;;;18.10;12.60;;;;;;;19.67;93.81;98719.58;137575;1273;22608;-82
2023/09/13 21:59:59;;;;;;;15.90;13.90;;;;;;;19.62;94.49;98718.48;137549;1273;22390;-81
2023/09/13 22:03:00;;;;;;;19.60;15.00;;;;;;;19.56;94.87;98712.46;137555;1273;22174;-81
2023/09/13 22:06:02;;;;;;;15.40;13.80;;;;;;;19.53;95.10;98714.65;137508;1257;22191;-81
2023/09/13 22:09:03;;;;;;;16.80;14.70;;;;;;;19.50;96.13;98714.89;137578;1273;22168;-82
2023/09/13 22:12:04;;;;;;;17.10;15.40;;;;;;;19.46;96.32;98715.00;137501;1273;23022;-81
2023/09/13 22:15:07;;;;;;;19.90;14.80;;;;;;;19.42;96.68;98714.92;137664;1273;22863;-81
2023/09/13 22:18:08;;;;;;;17.50;15.50;;;;;;;19.39;97.22;98715.34;137501;1273;22182;-81
2023/09/13 22:21:09;;;;;;;18.30;16.00;;;;;;;19.35;98.49;98709.27;137551;1273;22572;-82
2023/09/13 22:24:10;;;;;;;17.80;15.90;;;;;;;19.32;99.06;98705.11;137608;1267;22615;-82
2023/09/13 22:27:11;;;;;;;22.60;16.50;;;;;;;19.31;99.57;98703.92;137610;1273;22367;-81
2023/09/13 22:30:12;;;;;;;19.50;16.80;;;;;;;19.30;100.00;98704.10;137477;1273;22176;-82
2023/09/13 22:33:14;;;;;;;18.90;17.00;;;;;;;19.29;100.00;98699.90;137538;1273;22669;-82
2023/09/13 22:36:16;;;;;;;19.20;14.50;;;;;;;19.27;100.00;98693.42;137579;1273;22159;-81